createdAt,value
2022-11-24T00:01:27.180Z,32.00
2022-11-24T00:03:55.568Z,35.10
2022-11-24T00:06:18.176Z,34.17
2022-11-24T00:08:42.313Z,38.65
2022-11-24T00:11:10.050Z,41.43
2022-11-24T00:13:34.034Z,42.85
2022-11-24T00:16:05.302Z,41.92
2022-11-24T00:18:28.200Z,40.00
2022-11-24T00:20:53.706Z,45.53
2022-11-24T00:23:16.354Z,45.30
2022-11-24T00:25:38.958Z,42.95
2022-11-24T00:28:02.005Z,41.45
2022-11-24T00:30:24.843Z,39.40
2022-11-24T00:32:47.632Z,41.33
2022-11-24T00:35:10.425Z,47.07
2022-11-24T00:37:33.130Z,44.60
2022-11-24T00:39:55.936Z,48.55
2022-11-24T00:42:18.913Z,41.63
2022-11-24T00:44:41.536Z,44.97
2022-11-24T00:47:04.434Z,47.27
2022-11-24T00:49:27.370Z,47.03
2022-11-24T00:51:50.069Z,51.08
2022-11-24T00:54:12.683Z,46.70
2022-11-24T00:56:35.404Z,47.47
2022-11-24T00:58:58.419Z,45.07
2022-11-24T01:01:24.056Z,46.60
2022-11-24T01:03:47.613Z,47.30
2022-11-24T01:06:13.386Z,47.47
2022-11-24T01:08:39.974Z,50.75
2022-11-24T01:11:20.654Z,49.80
2022-11-24T01:13:47.386Z,50.05
2022-11-24T01:16:22.519Z,50.42
2022-11-24T01:18:45.830Z,50.33
2022-11-24T01:21:10.291Z,48.13
2022-11-24T01:23:33.375Z,49.93
2022-11-24T01:25:56.192Z,49.13
2022-11-24T01:28:18.793Z,49.78
2022-11-24T01:30:41.460Z,53.50
2022-11-24T01:33:04.202Z,51.35
2022-11-24T01:35:26.811Z,52.13
2022-11-24T01:37:49.392Z,53.50
2022-11-24T01:40:13.295Z,55.35
2022-11-24T01:42:52.685Z,52.92
2022-11-24T01:45:35.786Z,50.40
2022-11-24T01:47:59.977Z,53.47
2022-11-24T01:50:24.090Z,51.67
2022-11-24T01:52:54.095Z,48.80
2022-11-24T01:55:21.533Z,51.75
2022-11-24T01:57:53.090Z,54.60
2022-11-24T02:00:16.394Z,49.97
2022-11-24T02:02:42.004Z,51.85
2022-11-24T02:05:12.971Z,50.78
2022-11-24T02:07:37.122Z,50.03
2022-11-24T02:10:03.019Z,53.85
2022-11-24T02:12:27.273Z,49.60
2022-11-24T02:14:51.179Z,47.92
2022-11-24T02:17:13.978Z,52.90
2022-11-24T02:19:57.591Z,52.45
2022-11-24T02:22:22.912Z,45.85
2022-11-24T02:24:48.874Z,50.27
2022-11-24T02:27:12.043Z,49.30
2022-11-24T02:29:34.796Z,47.63
2022-11-24T02:32:01.384Z,50.97
2022-11-24T02:34:23.873Z,50.47
2022-11-24T02:36:46.450Z,51.03
2022-11-24T02:39:16.272Z,49.90
2022-11-24T02:41:42.953Z,53.45
2022-11-24T02:44:05.691Z,54.13
2022-11-24T02:46:48.791Z,50.88
2022-11-24T02:49:32.114Z,48.70
2022-11-24T02:51:54.658Z,52.08
2022-11-24T02:54:17.239Z,51.60
2022-11-24T02:56:39.781Z,54.72
2022-11-24T02:59:02.318Z,51.72
2022-11-24T03:01:24.884Z,56.50
2022-11-24T03:03:47.647Z,54.70
2022-11-24T03:06:10.267Z,58.20
2022-11-24T03:08:32.864Z,57.97
2022-11-24T03:10:55.483Z,57.17
2022-11-24T03:13:18.114Z,54.97
2022-11-24T03:15:41.368Z,61.90
2022-11-24T03:18:05.244Z,60.22
2022-11-24T03:20:28.283Z,57.10
2022-11-24T03:22:50.927Z,56.85
2022-11-24T03:25:13.446Z,58.27
2022-11-24T03:27:36.341Z,59.92
2022-11-24T03:29:59.376Z,62.60
2022-11-24T03:32:22.036Z,65.38
2022-11-24T03:34:44.675Z,55.47
2022-11-24T03:37:07.736Z,57.40
2022-11-24T03:39:30.581Z,56.78
2022-11-24T03:41:53.332Z,55.65
2022-11-24T03:44:16.107Z,56.80
2022-11-24T03:46:39.138Z,57.88
2022-11-24T03:49:01.901Z,51.53
2022-11-24T03:51:24.837Z,52.78
2022-11-24T03:53:47.626Z,56.05
2022-11-24T03:56:10.167Z,52.75
2022-11-24T03:58:32.847Z,51.00
2022-11-24T04:00:56.143Z,49.23
2022-11-24T04:03:19.231Z,50.97
2022-11-24T04:05:41.868Z,44.67
2022-11-24T04:08:05.564Z,55.75
2022-11-24T04:10:28.072Z,54.97
2022-11-24T04:12:50.571Z,54.17
2022-11-24T04:15:19.254Z,54.67
2022-11-24T04:17:43.262Z,59.25
2022-11-24T04:20:06.710Z,53.97
2022-11-24T04:22:29.455Z,54.88
2022-11-24T04:24:51.880Z,52.67
2022-11-24T04:27:14.493Z,56.55
2022-11-24T04:29:39.832Z,55.50
2022-11-24T04:32:02.389Z,53.92
2022-11-24T04:34:24.829Z,59.65
2022-11-24T04:36:47.421Z,62.50
2022-11-24T04:39:23.939Z,56.45
2022-11-24T04:41:48.836Z,57.25
2022-11-24T04:44:11.418Z,58.40
2022-11-24T04:46:34.141Z,58.83
2022-11-24T04:48:56.651Z,59.20
2022-11-24T04:51:19.226Z,58.85
2022-11-24T04:53:41.839Z,55.45
2022-11-24T04:56:06.301Z,54.08
2022-11-24T04:58:28.954Z,56.50
2022-11-24T05:00:51.817Z,59.83
2022-11-24T05:03:14.382Z,55.80
2022-11-24T05:05:36.938Z,55.80
2022-11-24T05:08:00.470Z,59.92
2022-11-24T05:10:35.388Z,55.85
2022-11-24T05:12:59.550Z,58.67
2022-11-24T05:15:22.272Z,57.80
2022-11-24T05:17:45.035Z,53.35
2022-11-24T05:20:08.413Z,56.42
2022-11-24T05:22:31.825Z,61.42
2022-11-24T05:24:54.500Z,56.37
2022-11-24T05:27:17.236Z,55.10
2022-11-24T05:29:39.866Z,59.03
2022-11-24T05:32:02.660Z,57.72
2022-11-24T05:34:25.564Z,59.85
2022-11-24T05:36:54.439Z,52.97
2022-11-24T05:39:17.160Z,50.83
2022-11-24T05:41:39.815Z,54.60
2022-11-24T05:44:02.449Z,52.92
2022-11-24T05:46:25.234Z,54.67
2022-11-24T05:48:47.868Z,52.33
2022-11-24T05:51:10.456Z,54.90
2022-11-24T05:53:33.033Z,53.30
2022-11-24T05:55:55.597Z,53.15
2022-11-24T05:58:18.293Z,55.60
2022-11-24T06:00:41.368Z,49.77
2022-11-24T06:03:04.177Z,49.25
2022-11-24T06:05:28.284Z,53.08
2022-11-24T06:07:52.373Z,50.60
2022-11-24T06:10:16.902Z,49.17
2022-11-24T06:12:39.490Z,46.97
2022-11-24T06:15:02.828Z,48.17
2022-11-24T06:17:26.275Z,54.47
2022-11-24T06:19:50.260Z,47.83
2022-11-24T06:22:13.001Z,46.40
2022-11-24T06:24:36.059Z,53.17
2022-11-24T06:26:58.922Z,47.28
2022-11-24T06:29:22.052Z,45.65
2022-11-24T06:31:44.657Z,48.03
2022-11-24T06:34:08.547Z,46.40
2022-11-24T06:36:34.429Z,49.20
2022-11-24T06:38:57.359Z,43.40
2022-11-24T06:41:20.562Z,47.88
2022-11-24T06:43:43.796Z,47.60
2022-11-24T06:46:06.922Z,48.92
2022-11-24T06:48:30.923Z,53.10
2022-11-24T06:50:54.284Z,48.72
2022-11-24T06:53:17.945Z,48.00
2022-11-24T06:55:44.189Z,46.85
2022-11-24T06:58:07.796Z,58.97
2022-11-24T07:00:32.232Z,44.97
2022-11-24T07:02:54.913Z,53.17
2022-11-24T07:05:17.561Z,51.85
2022-11-24T07:07:40.305Z,50.20
2022-11-24T07:10:02.966Z,55.10
2022-11-24T07:12:25.774Z,52.73
2022-11-24T07:14:49.363Z,45.55
2022-11-24T07:17:11.937Z,48.67
2022-11-24T07:19:34.650Z,47.05
2022-11-24T07:21:58.426Z,45.55
2022-11-24T07:24:21.411Z,47.70
2022-11-24T07:26:43.977Z,46.45
2022-11-24T07:29:06.508Z,47.63
2022-11-24T07:31:29.178Z,48.13
2022-11-24T07:33:53.731Z,50.05
2022-11-24T07:36:16.404Z,47.23
2022-11-24T07:38:38.960Z,51.65
2022-11-24T07:41:04.599Z,47.42
2022-11-24T07:43:27.399Z,45.72
2022-11-24T07:45:53.263Z,49.05
2022-11-24T07:48:15.929Z,48.43
2022-11-24T07:50:41.508Z,50.20
2022-11-24T07:53:14.172Z,54.78
2022-11-24T07:55:37.062Z,53.78
2022-11-24T07:58:01.138Z,50.08
2022-11-24T08:00:24.057Z,55.17
2022-11-24T08:02:46.921Z,59.88
2022-11-24T08:05:09.849Z,54.65
2022-11-24T08:07:33.300Z,59.05
2022-11-24T08:09:56.104Z,58.45
2022-11-24T08:12:21.874Z,59.27
2022-11-24T08:14:44.556Z,58.38
2022-11-24T08:17:07.309Z,57.47
2022-11-24T08:19:32.332Z,62.20
2022-11-24T08:21:54.888Z,55.08
2022-11-24T08:24:17.938Z,59.30
2022-11-24T08:26:40.725Z,58.92
2022-11-24T08:29:12.680Z,61.60
2022-11-24T08:31:38.841Z,60.38
2022-11-24T08:34:03.023Z,54.88
2022-11-24T08:36:26.063Z,57.53
2022-11-24T08:38:49.882Z,57.17
2022-11-24T08:41:16.016Z,58.83
2022-11-24T08:43:39.032Z,57.03
2022-11-24T08:46:03.856Z,62.28
2022-11-24T08:48:26.841Z,57.50
2022-11-24T08:50:49.555Z,57.35
2022-11-24T08:53:12.457Z,52.65
2022-11-24T08:55:35.553Z,55.90
2022-11-24T08:57:58.478Z,54.58
2022-11-24T09:00:25.496Z,53.37
2022-11-24T09:02:58.461Z,50.80
2022-11-24T09:05:50.006Z,50.70
2022-11-24T09:08:04.953Z,53.92
2022-11-24T09:10:27.555Z,58.90
2022-11-24T09:12:51.369Z,55.57
2022-11-24T09:15:16.449Z,47.42
2022-11-24T09:17:39.348Z,54.95
2022-11-24T09:20:02.147Z,53.38
2022-11-24T09:22:25.129Z,52.67
2022-11-24T09:24:48.133Z,49.60
2022-11-24T09:27:10.875Z,47.38
2022-11-24T09:29:33.839Z,50.50
2022-11-24T09:31:59.653Z,49.83
2022-11-24T09:34:26.228Z,54.35
2022-11-24T09:36:51.877Z,49.80
2022-11-24T09:39:14.675Z,46.97
2022-11-24T09:41:51.145Z,47.50
2022-11-24T09:44:41.650Z,44.28
2022-11-24T09:47:17.134Z,47.58
2022-11-24T09:49:47.241Z,44.00
2022-11-24T09:52:18.060Z,50.80
2022-11-24T09:54:49.576Z,46.53
2022-11-24T09:57:14.480Z,48.75
2022-11-24T09:59:37.917Z,45.17
2022-11-24T10:02:00.933Z,43.30
2022-11-24T10:04:30.484Z,43.63
2022-11-24T10:07:28.173Z,43.97
2022-11-24T10:10:10.203Z,43.03
2022-11-24T10:13:20.866Z,42.90
2022-11-24T10:15:52.014Z,43.17
2022-11-24T10:18:24.280Z,41.20
2022-11-24T10:21:19.958Z,43.45
2022-11-24T10:23:51.780Z,40.63
2022-11-24T10:26:22.629Z,36.05
2022-11-24T10:28:53.516Z,39.40
2022-11-24T10:31:29.108Z,44.30
2022-11-24T10:33:52.084Z,37.45
2022-11-24T10:36:26.965Z,41.47
2022-11-24T10:39:01.821Z,41.53
2022-11-24T10:41:51.009Z,42.57
2022-11-24T10:44:15.088Z,38.28
2022-11-24T10:46:39.635Z,37.47
2022-11-24T10:49:05.249Z,35.78
2022-11-24T10:51:30.833Z,37.60
2022-11-24T10:54:01.471Z,36.23
2022-11-24T10:56:24.331Z,37.13
2022-11-24T10:58:47.769Z,41.33
2022-11-24T11:01:13.632Z,37.97
2022-11-24T11:03:47.212Z,36.83
2022-11-24T11:06:15.329Z,35.87
2022-11-24T11:08:43.297Z,34.05
2022-11-24T11:11:29.338Z,32.60
2022-11-24T11:14:04.597Z,36.08
2022-11-24T11:16:39.151Z,33.05
2022-11-24T11:19:20.280Z,28.83
2022-11-24T11:21:48.848Z,31.33
2022-11-24T11:24:18.289Z,28.65
2022-11-24T11:26:42.691Z,27.23
2022-11-24T11:35:00.101Z,26.48
2022-11-24T11:37:29.229Z,24.20
2022-11-24T11:39:54.415Z,26.55
2022-11-24T11:45:26.809Z,23.23
2022-11-24T11:48:13.564Z,22.20
2022-11-24T11:51:22.137Z,22.92
2022-11-24T11:54:13.293Z,21.80
2022-11-24T11:56:48.411Z,22.00
2022-11-24T11:59:35.436Z,24.45
2022-11-24T12:02:33.419Z,18.83
2022-11-24T12:05:10.920Z,19.88
2022-11-24T12:07:49.751Z,20.00
2022-11-24T12:10:24.657Z,22.83
2022-11-24T12:13:03.400Z,17.73
2022-11-24T12:15:36.171Z,18.48
2022-11-24T12:18:33.484Z,20.05
2022-11-24T12:21:28.752Z,18.38
2022-11-24T12:24:10.552Z,18.02
2022-11-24T12:26:52.238Z,19.27
2022-11-24T12:29:24.854Z,17.65
2022-11-24T12:32:45.073Z,18.83
2022-11-24T12:35:36.233Z,19.70
2022-11-24T12:38:29.304Z,17.83
2022-11-24T12:44:12.295Z,18.95
2022-11-24T12:46:59.278Z,17.75
2022-11-24T12:49:40.134Z,17.83
2022-11-24T12:52:18.490Z,17.52
2022-11-24T12:54:44.774Z,14.27
2022-11-24T12:57:21.900Z,16.48
2022-11-24T13:00:10.930Z,16.00
2022-11-24T13:03:07.797Z,16.52
2022-11-24T13:05:55.326Z,18.77
2022-11-24T13:08:19.227Z,15.63
2022-11-24T13:10:58.232Z,17.67
2022-11-24T13:13:26.684Z,17.80
2022-11-24T13:18:57.561Z,16.65
2022-11-24T13:21:50.591Z,16.20
2022-11-24T13:24:17.277Z,15.07
2022-11-24T13:27:13.831Z,16.05
2022-11-24T13:29:39.094Z,13.30
2022-11-24T13:32:07.481Z,14.68
2022-11-24T13:34:39.676Z,15.20
2022-11-24T13:37:31.983Z,16.75
2022-11-24T13:39:59.601Z,16.35
2022-11-24T13:42:41.713Z,16.33
2022-11-24T13:45:38.935Z,15.95
2022-11-24T13:48:02.012Z,15.53
2022-11-24T13:50:51.254Z,16.05
2022-11-24T13:53:35.268Z,13.77
2022-11-24T13:55:58.079Z,16.55
2022-11-24T13:58:39.468Z,16.85
2022-11-24T14:01:18.300Z,16.02
2022-11-24T14:04:21.741Z,15.82
2022-11-24T14:06:42.846Z,13.82
2022-11-24T14:09:35.797Z,16.77
2022-11-24T14:12:00.160Z,17.83
2022-11-24T14:14:23.984Z,15.03
2022-11-24T14:16:46.600Z,16.75
2022-11-24T14:19:11.098Z,14.45
2022-11-24T14:21:37.892Z,13.70
2022-11-24T14:24:25.105Z,15.25
2022-11-24T14:26:47.948Z,14.13
2022-11-24T14:29:21.242Z,16.48
2022-11-24T14:31:53.830Z,15.75
2022-11-24T14:34:21.113Z,15.98
2022-11-24T14:36:43.960Z,19.08
2022-11-24T14:39:11.219Z,27.57
2022-11-24T14:41:34.337Z,30.95
2022-11-24T14:44:08.611Z,26.25
2022-11-24T14:46:31.504Z,21.67
2022-11-24T14:48:54.660Z,18.30
2022-11-24T14:51:25.747Z,20.03
2022-11-24T14:53:52.337Z,18.98
2022-11-24T14:56:26.799Z,20.33
2022-11-24T14:58:49.349Z,18.70
2022-11-24T15:01:30.067Z,19.80
2022-11-24T15:04:46.411Z,16.63
2022-11-24T15:07:18.909Z,17.92
2022-11-24T15:09:47.582Z,16.17
2022-11-24T15:12:23.172Z,18.40
2022-11-24T15:14:54.704Z,18.58
2022-11-24T15:17:23.563Z,18.57
2022-11-24T15:20:16.672Z,16.65
2022-11-24T15:22:42.493Z,17.15
2022-11-24T15:25:32.523Z,14.98
2022-11-24T15:27:55.380Z,16.50
2022-11-24T15:30:17.960Z,16.07
2022-11-24T15:32:49.494Z,17.38
2022-11-24T15:35:12.208Z,15.23
2022-11-24T15:37:34.796Z,17.08
2022-11-24T15:39:57.589Z,17.98
2022-11-24T15:42:20.233Z,21.40
2022-11-24T15:44:42.812Z,20.85
2022-11-24T15:47:05.463Z,20.77
2022-11-24T15:49:28.229Z,17.65
2022-11-24T15:51:50.933Z,20.15
2022-11-24T15:54:17.880Z,17.33
2022-11-24T15:56:42.149Z,17.63
2022-11-24T15:59:04.971Z,15.50
2022-11-24T16:01:31.556Z,17.90
2022-11-24T16:03:54.527Z,19.35
2022-11-24T16:06:24.619Z,19.03
2022-11-24T16:08:48.009Z,16.67
2022-11-24T16:11:10.516Z,19.75
2022-11-24T16:13:33.230Z,16.92
2022-11-24T16:15:55.818Z,18.85
2022-11-24T16:18:18.418Z,20.33
2022-11-24T16:20:41.282Z,18.05
2022-11-24T16:23:04.459Z,17.63
2022-11-24T16:25:27.145Z,17.38
2022-11-24T16:27:49.851Z,18.48
2022-11-24T16:30:13.125Z,18.10
2022-11-24T16:32:35.888Z,16.38
2022-11-24T16:34:58.613Z,19.30
2022-11-24T16:37:21.796Z,17.80
2022-11-24T16:39:49.801Z,17.40
2022-11-24T16:42:12.963Z,17.77
2022-11-24T16:44:35.830Z,16.85
2022-11-24T16:46:58.649Z,18.92
2022-11-24T16:49:21.610Z,18.70
2022-11-24T16:51:44.272Z,18.73
2022-11-24T16:54:06.937Z,18.50
2022-11-24T16:56:30.418Z,20.10
2022-11-24T16:58:53.856Z,19.02
2022-11-24T17:01:16.904Z,21.60
2022-11-24T17:03:40.081Z,16.70
2022-11-24T17:06:03.371Z,18.67
2022-11-24T17:08:26.447Z,16.90
2022-11-24T17:10:49.331Z,17.90
2022-11-24T17:13:11.949Z,19.08
2022-11-24T17:15:44.509Z,21.05
2022-11-24T17:18:24.157Z,22.60
2022-11-24T17:20:47.744Z,20.13
2022-11-24T17:23:10.552Z,19.20
2022-11-24T17:25:34.560Z,21.73
2022-11-24T17:28:17.417Z,19.88
2022-11-24T17:30:40.420Z,18.60
2022-11-24T17:33:03.029Z,21.85
2022-11-24T17:35:26.189Z,19.42
2022-11-24T17:37:48.978Z,23.45
2022-11-24T17:40:28.531Z,20.25
2022-11-24T17:42:51.962Z,22.37
2022-11-24T17:45:14.644Z,24.92
2022-11-24T17:47:38.006Z,21.80
2022-11-24T17:50:03.030Z,23.13
2022-11-24T17:52:26.061Z,19.90
2022-11-24T17:54:48.881Z,20.03
2022-11-24T17:57:12.029Z,23.70
2022-11-24T17:59:34.822Z,23.02
2022-11-24T18:01:57.822Z,26.50
2022-11-24T18:04:20.468Z,22.48
2022-11-24T18:06:43.264Z,21.70
2022-11-24T18:09:06.258Z,22.75
2022-11-24T18:11:32.080Z,26.65
2022-11-24T18:14:00.561Z,22.15
2022-11-24T18:16:25.006Z,22.48
2022-11-24T18:18:50.411Z,25.33
2022-11-24T18:21:16.699Z,28.08
2022-11-24T18:23:39.770Z,24.17
2022-11-24T18:26:05.372Z,23.02
2022-11-24T18:28:28.673Z,26.42
2022-11-24T18:31:00.011Z,22.93
2022-11-24T18:33:23.095Z,26.83
2022-11-24T18:36:01.093Z,24.60
2022-11-24T18:38:24.209Z,23.27
2022-11-24T18:40:52.421Z,23.65
2022-11-24T18:43:15.532Z,21.53
2022-11-24T18:45:38.623Z,22.83
2022-11-24T18:48:01.515Z,23.42
2022-11-24T18:50:24.643Z,23.33
2022-11-24T18:52:48.015Z,29.45
2022-11-24T18:55:10.900Z,26.73
2022-11-24T18:57:33.715Z,26.55
2022-11-24T18:59:56.938Z,24.55
2022-11-24T19:02:20.071Z,23.77
2022-11-24T19:04:42.951Z,25.15
2022-11-24T19:07:05.835Z,24.53
2022-11-24T19:09:28.928Z,23.83
2022-11-24T19:11:51.672Z,24.40
2022-11-24T19:14:16.654Z,24.20
2022-11-24T19:16:40.609Z,24.42
2022-11-24T19:19:04.425Z,25.17
2022-11-24T19:21:28.583Z,27.00
2022-11-24T19:23:52.513Z,24.45
2022-11-24T19:26:15.906Z,23.30
2022-11-24T19:28:38.869Z,27.25
2022-11-24T19:31:04.728Z,22.77
2022-11-24T19:33:27.850Z,26.65
2022-11-24T19:36:10.744Z,25.85
2022-11-24T19:38:35.377Z,23.45
2022-11-24T19:41:12.548Z,24.60
2022-11-24T19:43:36.065Z,24.50
2022-11-24T19:46:10.664Z,24.10
2022-11-24T19:48:39.516Z,26.02
2022-11-24T19:51:08.012Z,25.52
2022-11-24T19:53:31.473Z,28.45
2022-11-24T19:55:54.284Z,25.17
2022-11-24T19:58:17.333Z,23.33
2022-11-24T20:00:40.105Z,26.02
2022-11-24T20:03:03.150Z,25.17
2022-11-24T20:05:25.707Z,24.42
2022-11-24T20:07:48.633Z,24.23
2022-11-24T20:10:11.263Z,26.05
2022-11-24T20:12:34.239Z,24.60
2022-11-24T20:14:57.156Z,24.85
2022-11-24T20:17:20.492Z,24.17
2022-11-24T20:19:43.308Z,26.50
2022-11-24T20:22:06.120Z,24.23
2022-11-24T20:24:28.939Z,24.80
2022-11-24T20:26:58.354Z,24.20
2022-11-24T20:29:21.460Z,28.75
2022-11-24T20:31:49.165Z,25.43
2022-11-24T20:34:13.136Z,25.25
2022-11-24T20:36:37.873Z,27.52
2022-11-24T20:39:03.991Z,24.80
2022-11-24T20:41:29.684Z,25.17
2022-11-24T20:43:54.158Z,26.30
2022-11-24T20:46:21.364Z,22.92
2022-11-24T20:48:44.865Z,25.73
2022-11-24T20:51:29.604Z,25.73
2022-11-24T20:53:55.238Z,24.83
2022-11-24T20:56:20.992Z,25.83
2022-11-24T20:58:44.251Z,25.30
2022-11-24T21:01:11.591Z,25.33
2022-11-24T21:03:39.688Z,25.15
2022-11-24T21:06:06.971Z,27.65
2022-11-24T21:08:33.871Z,24.00
2022-11-24T21:10:58.244Z,24.15
2022-11-24T21:13:21.160Z,25.10
2022-11-24T21:15:44.019Z,27.73
2022-11-24T21:18:06.774Z,25.30
2022-11-24T21:20:29.798Z,22.97
2022-11-24T21:22:52.921Z,23.27
2022-11-24T21:25:15.809Z,24.73
2022-11-24T21:27:38.592Z,22.42
2022-11-24T21:30:02.047Z,25.50
2022-11-24T21:32:26.600Z,25.47
2022-11-24T21:34:49.429Z,26.10
2022-11-24T21:37:12.165Z,28.08
2022-11-24T21:39:36.471Z,26.25
2022-11-24T21:41:59.115Z,25.80
2022-11-24T21:44:22.037Z,21.67
2022-11-24T21:46:49.598Z,24.83
2022-11-24T21:49:16.925Z,27.15
2022-11-24T21:51:39.515Z,28.83
2022-11-24T21:54:02.204Z,26.08
2022-11-24T21:56:25.049Z,30.20
2022-11-24T21:58:50.746Z,29.40
2022-11-24T22:01:14.493Z,35.35
2022-11-24T22:03:37.761Z,32.45
2022-11-24T22:06:01.216Z,29.77
2022-11-24T22:08:32.775Z,26.60
2022-11-24T22:11:01.735Z,24.90
2022-11-24T22:13:24.271Z,27.30
2022-11-24T22:15:46.864Z,30.10
2022-11-24T22:18:21.186Z,23.85
2022-11-24T22:20:43.879Z,28.93
2022-11-24T22:23:06.368Z,27.77
2022-11-24T22:25:28.892Z,28.38
2022-11-24T22:27:51.593Z,24.30
2022-11-24T22:30:15.168Z,26.98
2022-11-24T22:32:37.890Z,24.83
2022-11-24T22:35:00.488Z,29.20
2022-11-24T22:37:23.236Z,24.98
2022-11-24T22:39:45.986Z,27.20
2022-11-24T22:42:08.579Z,24.80
2022-11-24T22:44:31.111Z,26.63
2022-11-24T22:46:53.755Z,29.98
2022-11-24T22:49:16.380Z,25.33
2022-11-24T22:51:39.448Z,27.50
2022-11-24T22:54:04.337Z,25.33
2022-11-24T22:56:32.480Z,29.37
2022-11-24T22:58:55.373Z,28.42
2022-11-24T23:01:20.273Z,30.25
2022-11-24T23:03:43.416Z,25.45
2022-11-24T23:06:08.562Z,29.45
2022-11-24T23:08:33.809Z,30.10
2022-11-24T23:11:04.213Z,27.20
2022-11-24T23:13:27.018Z,25.20
2022-11-24T23:15:49.663Z,30.48
2022-11-24T23:18:12.862Z,27.90
2022-11-24T23:20:35.468Z,25.23
2022-11-24T23:22:58.052Z,28.92
2022-11-24T23:25:20.588Z,30.77
2022-11-24T23:27:43.196Z,29.00
2022-11-24T23:30:06.616Z,28.77
2022-11-24T23:32:29.919Z,29.83
2022-11-24T23:34:52.470Z,28.55
2022-11-24T23:37:15.288Z,26.42
2022-11-24T23:39:38.527Z,28.67
2022-11-24T23:42:01.107Z,30.77
2022-11-24T23:44:23.659Z,31.40
2022-11-24T23:46:46.431Z,24.80
2022-11-24T23:49:09.115Z,30.15
2022-11-24T23:51:32.889Z,29.00
2022-11-24T23:53:56.288Z,30.85
2022-11-24T23:56:21.522Z,31.17
2022-11-24T23:58:44.481Z,31.77
